sensor_id;sensor_type;location;lat;lon;timestamp;pressure;altitude;pressure_sealevel;temperature;humidity
15750;BME280;7976;52.526;13.326;2023-01-27T00:01:02;101757.53;;;1.90;95.37
15750;BME280;7976;52.526;13.326;2023-01-27T00:03:29;101753.28;;;1.93;95.83
15750;BME280;7976;52.526;13.326;2023-01-27T00:05:57;101759.41;;;2.00;95.69
15750;BME280;7976;52.526;13.326;2023-01-27T00:08:26;101765.50;;;2.05;95.65
15750;BME280;7976;52.526;13.326;2023-01-27T00:10:57;101764.63;;;2.04;95.45
15750;BME280;7976;52.526;13.326;2023-01-27T00:13:38;101766.34;;;2.04;95.26
15750;BME280;7976;52.526;13.326;2023-01-27T00:16:05;101763.78;;;2.04;95.15
15750;BME280;7976;52.526;13.326;2023-01-27T00:18:32;101768.06;;;2.05;95.25
15750;BME280;7976;52.526;13.326;2023-01-27T00:21:00;101762.09;;;2.06;95.23
15750;BME280;7976;52.526;13.326;2023-01-27T00:23:45;101756.09;;;2.10;95.62
15750;BME280;7976;52.526;13.326;2023-01-27T00:26:30;101762.16;;;2.13;95.03
15750;BME280;7976;52.526;13.326;2023-01-27T00:28:56;101759.56;;;2.10;94.69
15750;BME280;7976;52.526;13.326;2023-01-27T00:31:23;101762.09;;;2.07;94.80
15750;BME280;7976;52.526;13.326;2023-01-27T00:34:08;101756.88;;;2.04;94.53
15750;BME280;7976;52.526;13.326;2023-01-27T00:36:38;101756.84;;;2.01;94.67
15750;BME280;7976;52.526;13.326;2023-01-27T00:39:07;101756.75;;;1.95;94.58
15750;BME280;7976;52.526;13.326;2023-01-27T00:41:35;101762.84;;;2.00;94.84
15750;BME280;7976;52.526;13.326;2023-01-27T00:44:03;101765.44;;;2.00;95.00
15750;BME280;7976;52.526;13.326;2023-01-27T00:46:31;101772.31;;;2.01;94.78
15750;BME280;7976;52.526;13.326;2023-01-27T00:49:00;101751.59;;;1.95;94.83
15750;BME280;7976;52.526;13.326;2023-01-27T00:51:27;101753.31;;;1.95;94.68
15750;BME280;7976;52.526;13.326;2023-01-27T00:53:55;101765.28;;;1.91;94.65
15750;BME280;7976;52.526;13.326;2023-01-27T00:56:23;101765.38;;;1.96;94.58
15750;BME280;7976;52.526;13.326;2023-01-27T00:58:51;101765.41;;;1.99;95.01
15750;BME280;7976;52.526;13.326;2023-01-27T01:01:18;101770.59;;;2.00;94.85
15750;BME280;7976;52.526;13.326;2023-01-27T01:03:45;101774.91;;;2.03;94.65
15750;BME280;7976;52.526;13.326;2023-01-27T01:06:16;101783.56;;;2.06;94.71
15750;BME280;7976;52.526;13.326;2023-01-27T01:08:43;101784.44;;;2.07;94.60
15750;BME280;7976;52.526;13.326;2023-01-27T01:11:15;101786.16;;;2.08;94.63
15750;BME280;7976;52.526;13.326;2023-01-27T01:13:44;101777.59;;;2.07;94.28
15750;BME280;7976;52.526;13.326;2023-01-27T01:16:15;101780.97;;;2.03;94.29
15750;BME280;7976;52.526;13.326;2023-01-27T01:18:43;101779.09;;;1.95;94.06
15750;BME280;7976;52.526;13.326;2023-01-27T01:21:14;101779.00;;;1.87;94.03
15750;BME280;7976;52.526;13.326;2023-01-27T01:23:43;101780.72;;;1.88;94.54
15750;BME280;7976;52.526;13.326;2023-01-27T01:26:14;101790.28;;;1.94;94.73
15750;BME280;7976;52.526;13.326;2023-01-27T01:28:43;101782.63;;;2.00;94.60
15750;BME280;7976;52.526;13.326;2023-01-27T01:31:13;101780.88;;;1.96;94.42
15750;BME280;7976;52.526;13.326;2023-01-27T01:33:40;101791.19;;;1.96;94.27
15750;BME280;7976;52.526;13.326;2023-01-27T01:36:12;101786.06;;;1.99;94.67
15750;BME280;7976;52.526;13.326;2023-01-27T01:38:40;101790.41;;;2.03;94.77
15750;BME280;7976;52.526;13.326;2023-01-27T01:41:13;101790.38;;;2.00;94.47
15750;BME280;7976;52.526;13.326;2023-01-27T01:43:40;101792.03;;;1.98;94.67
15750;BME280;7976;52.526;13.326;2023-01-27T01:46:09;101790.31;;;1.97;94.65
15750;BME280;7976;52.526;13.326;2023-01-27T01:48:39;101796.38;;;1.99;94.61
15750;BME280;7976;52.526;13.326;2023-01-27T01:51:11;101798.97;;;1.99;94.57
15750;BME280;7976;52.526;13.326;2023-01-27T01:53:44;101797.22;;;1.99;94.95
15750;BME280;7976;52.526;13.326;2023-01-27T01:56:21;101800.72;;;2.03;94.73
15750;BME280;7976;52.526;13.326;2023-01-27T01:58:50;101799.91;;;2.05;94.70
15750;BME280;7976;52.526;13.326;2023-01-27T02:01:18;101798.16;;;2.04;94.53
15750;BME280;7976;52.526;13.326;2023-01-27T02:03:50;101803.41;;;2.07;94.54
15750;BME280;7976;52.526;13.326;2023-01-27T02:06:19;101797.44;;;2.13;94.63
15750;BME280;7976;52.526;13.326;2023-01-27T02:08:49;101793.19;;;2.16;94.53
15750;BME280;7976;52.526;13.326;2023-01-27T02:11:18;101804.38;;;2.17;94.60
15750;BME280;7976;52.526;13.326;2023-01-27T02:13:45;101796.66;;;2.18;94.26
15750;BME280;7976;52.526;13.326;2023-01-27T02:16:13;101791.50;;;2.18;94.38
15750;BME280;7976;52.526;13.326;2023-01-27T02:18:41;101795.88;;;2.22;94.30
15750;BME280;7976;52.526;13.326;2023-01-27T02:21:08;101795.91;;;2.27;94.31
15750;BME280;7976;52.526;13.326;2023-01-27T02:23:55;101792.53;;;2.31;94.09
15750;BME280;7976;52.526;13.326;2023-01-27T02:26:31;101798.53;;;2.31;94.09
15750;BME280;7976;52.526;13.326;2023-01-27T02:29:03;101797.63;;;2.28;94.10
15750;BME280;7976;52.526;13.326;2023-01-27T02:31:30;101792.50;;;2.29;94.00
15750;BME280;7976;52.526;13.326;2023-01-27T02:34:02;101798.53;;;2.31;94.29
15750;BME280;7976;52.526;13.326;2023-01-27T02:36:51;101796.69;;;2.21;93.77
15750;BME280;7976;52.526;13.326;2023-01-27T02:39:25;101795.78;;;2.18;93.90
15750;BME280;7976;52.526;13.326;2023-01-27T02:41:56;101799.28;;;2.23;94.24
15750;BME280;7976;52.526;13.326;2023-01-27T02:44:25;101800.22;;;2.28;94.32
15750;BME280;7976;52.526;13.326;2023-01-27T02:46:51;101804.44;;;2.23;93.91
15750;BME280;7976;52.526;13.326;2023-01-27T02:49:18;101804.44;;;2.21;94.00
15750;BME280;7976;52.526;13.326;2023-01-27T02:51:45;101811.34;;;2.22;93.90
15750;BME280;7976;52.526;13.326;2023-01-27T02:54:12;101812.19;;;2.21;93.98
15750;BME280;7976;52.526;13.326;2023-01-27T02:56:40;101812.19;;;2.21;94.23
15750;BME280;7976;52.526;13.326;2023-01-27T02:59:09;101822.59;;;2.27;94.11
15750;BME280;7976;52.526;13.326;2023-01-27T03:01:38;101817.44;;;2.27;93.81
15750;BME280;7976;52.526;13.326;2023-01-27T03:04:05;101826.94;;;2.30;94.13
15750;BME280;7976;52.526;13.326;2023-01-27T03:06:33;101824.28;;;2.25;93.76
15750;BME280;7976;52.526;13.326;2023-01-27T03:09:00;101822.47;;;2.20;93.44
15750;BME280;7976;52.526;13.326;2023-01-27T03:11:27;101818.09;;;2.14;93.78
15750;BME280;7976;52.526;13.326;2023-01-27T03:14:09;101815.47;;;2.10;93.78
15750;BME280;7976;52.526;13.326;2023-01-27T03:16:38;101811.16;;;2.09;93.97
15750;BME280;7976;52.526;13.326;2023-01-27T03:19:22;101808.59;;;2.10;94.10
15750;BME280;7976;52.526;13.326;2023-01-27T03:21:52;101810.47;;;2.20;94.14
15750;BME280;7976;52.526;13.326;2023-01-27T03:24:20;101809.69;;;2.27;94.15
15750;BME280;7976;52.526;13.326;2023-01-27T03:26:47;101811.47;;;2.33;94.10
15750;BME280;7976;52.526;13.326;2023-01-27T03:29:18;101810.66;;;2.35;94.09
15750;BME280;7976;52.526;13.326;2023-01-27T03:32:04;101815.88;;;2.38;93.76
15750;BME280;7976;52.526;13.326;2023-01-27T03:34:32;101811.53;;;2.36;93.82
15750;BME280;7976;52.526;13.326;2023-01-27T03:37:06;101818.44;;;2.37;93.79
15750;BME280;7976;52.526;13.326;2023-01-27T03:39:50;101821.00;;;2.37;93.71
15750;BME280;7976;52.526;13.326;2023-01-27T03:42:34;101819.25;;;2.34;93.82
15750;BME280;7976;52.526;13.326;2023-01-27T03:45:20;101815.81;;;2.35;93.72
15750;BME280;7976;52.526;13.326;2023-01-27T03:48:05;101820.06;;;2.32;93.85
15750;BME280;7976;52.526;13.326;2023-01-27T03:50:32;101813.22;;;2.32;93.80
15750;BME280;7976;52.526;13.326;2023-01-27T03:53:03;101813.22;;;2.34;93.87
15750;BME280;7976;52.526;13.326;2023-01-27T03:55:32;101814.06;;;2.34;93.63
15750;BME280;7976;52.526;13.326;2023-01-27T03:57:59;101816.75;;;2.39;93.91
15750;BME280;7976;52.526;13.326;2023-01-27T04:00:45;101815.00;;;2.39;93.81
15750;BME280;7976;52.526;13.326;2023-01-27T04:03:12;101809.00;;;2.40;93.84
15750;BME280;7976;52.526;13.326;2023-01-27T04:05:56;101815.94;;;2.44;93.84
15750;BME280;7976;52.526;13.326;2023-01-27T04:08:42;101814.25;;;2.46;93.71
15750;BME280;7976;52.526;13.326;2023-01-27T04:11:09;101817.66;;;2.42;93.36
15750;BME280;7976;52.526;13.326;2023-01-27T04:13:53;101819.34;;;2.40;93.81
15750;BME280;7976;52.526;13.326;2023-01-27T04:16:21;101824.53;;;2.43;93.71
15750;BME280;7976;52.526;13.326;2023-01-27T04:18:53;101816.81;;;2.45;93.88
15750;BME280;7976;52.526;13.326;2023-01-27T04:21:20;101815.13;;;2.47;93.98
15750;BME280;7976;52.526;13.326;2023-01-27T04:23:47;101819.41;;;2.46;93.83
15750;BME280;7976;52.526;13.326;2023-01-27T04:26:14;101813.44;;;2.49;94.08
15750;BME280;7976;52.526;13.326;2023-01-27T04:28:41;101816.84;;;2.48;94.16
15750;BME280;7976;52.526;13.326;2023-01-27T04:31:08;101819.41;;;2.46;94.52
15750;BME280;7976;52.526;13.326;2023-01-27T04:33:36;101822.03;;;2.49;94.25
15750;BME280;7976;52.526;13.326;2023-01-27T04:36:03;101821.19;;;2.50;94.09
15750;BME280;7976;52.526;13.326;2023-01-27T04:38:30;101826.34;;;2.50;94.29
15750;BME280;7976;52.526;13.326;2023-01-27T04:40:57;101824.59;;;2.49;94.51
15750;BME280;7976;52.526;13.326;2023-01-27T04:43:24;101819.44;;;2.49;94.38
15750;BME280;7976;52.526;13.326;2023-01-27T04:45:51;101826.31;;;2.47;94.56
15750;BME280;7976;52.526;13.326;2023-01-27T04:48:18;101831.53;;;2.50;94.47
15750;BME280;7976;52.526;13.326;2023-01-27T04:50:46;101835.00;;;2.54;94.77
15750;BME280;7976;52.526;13.326;2023-01-27T04:53:13;101829.84;;;2.52;94.79
15750;BME280;7976;52.526;13.326;2023-01-27T04:55:40;101835.00;;;2.52;94.78
15750;BME280;7976;52.526;13.326;2023-01-27T04:58:11;101826.44;;;2.56;94.77
15750;BME280;7976;52.526;13.326;2023-01-27T05:00:38;101825.63;;;2.61;94.72
15750;BME280;7976;52.526;13.326;2023-01-27T05:03:05;101834.25;;;2.60;94.71
15750;BME280;7976;52.526;13.326;2023-01-27T05:05:35;101838.53;;;2.61;94.58
15750;BME280;7976;52.526;13.326;2023-01-27T05:08:04;101840.25;;;2.62;94.66
15750;BME280;7976;52.526;13.326;2023-01-27T05:10:31;101836.03;;;2.67;94.81
15750;BME280;7976;52.526;13.326;2023-01-27T05:12:58;101845.53;;;2.68;94.77
15750;BME280;7976;52.526;13.326;2023-01-27T05:15:26;101849.84;;;2.69;94.55
15750;BME280;7976;52.526;13.326;2023-01-27T05:17:53;101851.50;;;2.65;94.37
15750;BME280;7976;52.526;13.326;2023-01-27T05:20:21;101849.78;;;2.63;94.27
15750;BME280;7976;52.526;13.326;2023-01-27T05:22:50;101850.59;;;2.62;94.61
15750;BME280;7976;52.526;13.326;2023-01-27T05:25:42;101860.94;;;2.62;94.40
15750;BME280;7976;52.526;13.326;2023-01-27T05:28:09;101869.50;;;2.58;94.39
15750;BME280;7976;52.526;13.326;2023-01-27T05:30:36;101869.50;;;2.58;94.43
15750;BME280;7976;52.526;13.326;2023-01-27T05:33:03;101874.75;;;2.64;94.99
15750;BME280;7976;52.526;13.326;2023-01-27T05:35:32;101869.63;;;2.68;94.70
15750;BME280;7976;52.526;13.326;2023-01-27T05:37:59;101870.47;;;2.66;94.54
15750;BME280;7976;52.526;13.326;2023-01-27T05:40:26;101874.72;;;2.61;94.40
15750;BME280;7976;52.526;13.326;2023-01-27T05:42:54;101875.50;;;2.56;94.25
15750;BME280;7976;52.526;13.326;2023-01-27T05:45:21;101878.09;;;2.56;94.51
15750;BME280;7976;52.526;13.326;2023-01-27T05:47:48;101881.56;;;2.58;94.77
15750;BME280;7976;52.526;13.326;2023-01-27T05:50:16;101873.81;;;2.60;94.86
15750;BME280;7976;52.526;13.326;2023-01-27T05:52:43;101877.25;;;2.58;94.58
15750;BME280;7976;52.526;13.326;2023-01-27T05:55:10;101878.03;;;2.53;94.48
15750;BME280;7976;52.526;13.326;2023-01-27T05:57:37;101880.59;;;2.50;94.72
15750;BME280;7976;52.526;13.326;2023-01-27T06:00:10;101886.66;;;2.52;94.87
15750;BME280;7976;52.526;13.326;2023-01-27T06:02:37;101885.78;;;2.52;95.01
15750;BME280;7976;52.526;13.326;2023-01-27T06:05:04;101886.72;;;2.58;95.52
15750;BME280;7976;52.526;13.326;2023-01-27T06:07:31;101879.91;;;2.64;95.17
15750;BME280;7976;52.526;13.326;2023-01-27T06:09:58;101876.50;;;2.65;95.34
15750;BME280;7976;52.526;13.326;2023-01-27T06:12:24;101880.78;;;2.64;95.27
15750;BME280;7976;52.526;13.326;2023-01-27T06:14:51;101881.69;;;2.68;95.37
15750;BME280;7976;52.526;13.326;2023-01-27T06:17:21;101872.16;;;2.64;95.35
15750;BME280;7976;52.526;13.326;2023-01-27T06:19:48;101884.16;;;2.60;95.37
15750;BME280;7976;52.526;13.326;2023-01-27T06:22:14;101881.56;;;2.60;95.74
15750;BME280;7976;52.526;13.326;2023-01-27T06:24:41;101880.69;;;2.58;95.83
15750;BME280;7976;52.526;13.326;2023-01-27T06:27:08;101878.06;;;2.55;95.83
15750;BME280;7976;52.526;13.326;2023-01-27T06:29:35;101885.81;;;2.56;96.18
15750;BME280;7976;52.526;13.326;2023-01-27T06:32:02;101884.16;;;2.60;96.12
15750;BME280;7976;52.526;13.326;2023-01-27T06:34:31;101891.94;;;2.62;96.21
15750;BME280;7976;52.526;13.326;2023-01-27T06:36:57;101896.25;;;2.63;96.26
15750;BME280;7976;52.526;13.326;2023-01-27T06:39:24;101888.38;;;2.53;96.12
15750;BME280;7976;52.526;13.326;2023-01-27T06:41:51;101892.59;;;2.47;96.36
15750;BME280;7976;52.526;13.326;2023-01-27T06:44:18;101893.47;;;2.47;96.69
15750;BME280;7976;52.526;13.326;2023-01-27T06:46:45;101903.84;;;2.50;96.63
15750;BME280;7976;52.526;13.326;2023-01-27T06:49:11;101900.41;;;2.53;96.69
15750;BME280;7976;52.526;13.326;2023-01-27T06:51:41;101909.03;;;2.53;97.16
15750;BME280;7976;52.526;13.326;2023-01-27T06:54:09;101905.69;;;2.59;97.01
15750;BME280;7976;52.526;13.326;2023-01-27T06:56:36;101897.16;;;2.65;97.23
15750;BME280;7976;52.526;13.326;2023-01-27T06:59:03;101903.19;;;2.67;97.45
15750;BME280;7976;52.526;13.326;2023-01-27T07:01:29;101898.94;;;2.72;97.27
15750;BME280;7976;52.526;13.326;2023-01-27T07:03:56;101906.78;;;2.75;97.56
15750;BME280;7976;52.526;13.326;2023-01-27T07:06:23;101911.06;;;2.76;97.49
15750;BME280;7976;52.526;13.326;2023-01-27T07:08:51;101909.38;;;2.78;97.55
15750;BME280;7976;52.526;13.326;2023-01-27T07:11:17;101913.72;;;2.82;97.47
15750;BME280;7976;52.526;13.326;2023-01-27T07:13:44;101914.63;;;2.84;97.51
15750;BME280;7976;52.526;13.326;2023-01-27T07:16:11;101916.38;;;2.85;97.61
15750;BME280;7976;52.526;13.326;2023-01-27T07:18:38;101910.31;;;2.83;97.54
15750;BME280;7976;52.526;13.326;2023-01-27T07:21:05;101913.72;;;2.82;97.68
15750;BME280;7976;52.526;13.326;2023-01-27T07:23:32;101917.22;;;2.84;97.71
15750;BME280;7976;52.526;13.326;2023-01-27T07:26:01;101916.41;;;2.86;97.94
15750;BME280;7976;52.526;13.326;2023-01-27T07:28:28;101926.75;;;2.88;98.07
15750;BME280;7976;52.526;13.326;2023-01-27T07:31:00;101925.09;;;2.93;98.11
15750;BME280;7976;52.526;13.326;2023-01-27T07:33:27;101932.09;;;3.00;98.00
15750;BME280;7976;52.526;13.326;2023-01-27T07:35:54;101925.16;;;3.00;98.15
15750;BME280;7976;52.526;13.326;2023-01-27T07:38:21;101926.84;;;2.97;97.92
15750;BME280;7976;52.526;13.326;2023-01-27T07:40:48;101932.00;;;2.95;97.86
15750;BME280;7976;52.526;13.326;2023-01-27T07:43:17;101927.69;;;2.94;98.30
15750;BME280;7976;52.526;13.326;2023-01-27T07:45:45;101936.34;;;2.98;98.24
15750;BME280;7976;52.526;13.326;2023-01-27T07:48:14;101931.22;;;3.01;98.50
15750;BME280;7976;52.526;13.326;2023-01-27T07:50:41;101936.41;;;3.04;98.54
15750;BME280;7976;52.526;13.326;2023-01-27T07:53:10;101932.19;;;3.09;98.43
15750;BME280;7976;52.526;13.326;2023-01-27T07:55:37;101937.44;;;3.15;98.95
15750;BME280;7976;52.526;13.326;2023-01-27T07:58:04;101939.16;;;3.16;98.51
15750;BME280;7976;52.526;13.326;2023-01-27T08:00:33;101935.72;;;3.17;98.69
15750;BME280;7976;52.526;13.326;2023-01-27T08:03:02;101930.63;;;3.21;98.74
15750;BME280;7976;52.526;13.326;2023-01-27T08:05:32;101935.84;;;3.26;98.60
15750;BME280;7976;52.526;13.326;2023-01-27T08:08:00;101929.88;;;3.31;98.82
15750;BME280;7976;52.526;13.326;2023-01-27T08:10:29;101942.88;;;3.39;99.04
15750;BME280;7976;52.526;13.326;2023-01-27T08:12:56;101939.47;;;3.40;98.88
15750;BME280;7976;52.526;13.326;2023-01-27T08:15:23;101938.63;;;3.42;98.60
15750;BME280;7976;52.526;13.326;2023-01-27T08:17:56;101936.94;;;3.46;98.52
15750;BME280;7976;52.526;13.326;2023-01-27T08:20:24;101943.03;;;3.51;98.77
15750;BME280;7976;52.526;13.326;2023-01-27T08:22:52;101949.97;;;3.55;98.54
15750;BME280;7976;52.526;13.326;2023-01-27T08:25:19;101939.63;;;3.55;98.75
15750;BME280;7976;52.526;13.326;2023-01-27T08:27:49;101945.66;;;3.57;98.78
15750;BME280;7976;52.526;13.326;2023-01-27T08:30:17;101944.84;;;3.59;98.68
15750;BME280;7976;52.526;13.326;2023-01-27T08:32:44;101950.03;;;3.59;98.60
15750;BME280;7976;52.526;13.326;2023-01-27T08:35:12;101948.31;;;3.60;98.34
15750;BME280;7976;52.526;13.326;2023-01-27T08:37:39;101951.75;;;3.62;98.62
15750;BME280;7976;52.526;13.326;2023-01-27T08:40:07;101949.19;;;3.63;98.78
15750;BME280;7976;52.526;13.326;2023-01-27T08:42:34;101956.16;;;3.69;98.91
15750;BME280;7976;52.526;13.326;2023-01-27T08:45:01;101955.34;;;3.73;98.50
15750;BME280;7976;52.526;13.326;2023-01-27T08:47:28;101966.63;;;3.78;99.02
15750;BME280;7976;52.526;13.326;2023-01-27T08:49:55;101962.31;;;3.80;98.78
15750;BME280;7976;52.526;13.326;2023-01-27T08:52:23;101960.59;;;3.80;98.61
15750;BME280;7976;52.526;13.326;2023-01-27T08:54:52;101960.59;;;3.82;98.77
15750;BME280;7976;52.526;13.326;2023-01-27T08:57:18;101964.06;;;3.84;98.68
15750;BME280;7976;52.526;13.326;2023-01-27T08:59:45;101971.00;;;3.85;98.72
15750;BME280;7976;52.526;13.326;2023-01-27T09:02:12;101974.44;;;3.87;98.59
15750;BME280;7976;52.526;13.326;2023-01-27T09:04:39;101972.75;;;3.89;98.68
15750;BME280;7976;52.526;13.326;2023-01-27T09:07:09;101977.94;;;3.92;98.74
15750;BME280;7976;52.526;13.326;2023-01-27T09:09:37;101976.28;;;3.97;98.73
15750;BME280;7976;52.526;13.326;2023-01-27T09:12:04;101978.06;;;4.03;98.87
15750;BME280;7976;52.526;13.326;2023-01-27T09:14:31;101983.28;;;4.07;98.72
15750;BME280;7976;52.526;13.326;2023-01-27T09:16:59;101978.97;;;4.08;98.83
15750;BME280;7976;52.526;13.326;2023-01-27T09:19:25;101991.09;;;4.10;98.98
15750;BME280;7976;52.526;13.326;2023-01-27T09:21:52;101993.69;;;4.12;98.57
15750;BME280;7976;52.526;13.326;2023-01-27T09:24:19;101993.72;;;4.13;98.87
15750;BME280;7976;52.526;13.326;2023-01-27T09:26:48;102004.06;;;4.13;98.60
15750;BME280;7976;52.526;13.326;2023-01-27T09:29:14;101997.16;;;4.14;98.79
15750;BME280;7976;52.526;13.326;2023-01-27T09:31:41;101998.91;;;4.15;98.70
15750;BME280;7976;52.526;13.326;2023-01-27T09:34:08;101995.44;;;4.14;98.59
15750;BME280;7976;52.526;13.326;2023-01-27T09:36:41;102001.50;;;4.16;98.70
15750;BME280;7976;52.526;13.326;2023-01-27T09:39:10;102003.25;;;4.19;98.95
15750;BME280;7976;52.526;13.326;2023-01-27T09:42:14;102000.66;;;4.19;98.73
15750;BME280;7976;52.526;13.326;2023-01-27T09:45:08;102008.41;;;4.17;98.72
15750;BME280;7976;52.526;13.326;2023-01-27T09:48:17;102007.56;;;4.15;98.62
15750;BME280;7976;52.526;13.326;2023-01-27T09:50:54;102010.13;;;4.15;98.33
15750;BME280;7976;52.526;13.326;2023-01-27T09:54:02;102001.50;;;4.15;98.70
15750;BME280;7976;52.526;13.326;2023-01-27T09:56:45;102014.44;;;4.15;98.58
15750;BME280;7976;52.526;13.326;2023-01-27T09:59:45;102010.97;;;4.14;98.56
15750;BME280;7976;52.526;13.326;2023-01-27T10:02:31;102012.75;;;4.18;98.70
15750;BME280;7976;52.526;13.326;2023-01-27T10:05:30;102009.28;;;4.19;98.82
15750;BME280;7976;52.526;13.326;2023-01-27T10:08:56;102017.94;;;4.21;98.82
15750;BME280;7976;52.526;13.326;2023-01-27T10:11:36;102016.25;;;4.22;98.71
15750;BME280;7976;52.526;13.326;2023-01-27T10:14:21;102015.38;;;4.21;98.71
15750;BME280;7976;52.526;13.326;2023-01-27T10:17:08;102016.25;;;4.23;98.82
15750;BME280;7976;52.526;13.326;2023-01-27T10:19:55;102019.72;;;4.25;98.70
15750;BME280;7976;52.526;13.326;2023-01-27T10:22:39;102013.69;;;4.26;98.54
15750;BME280;7976;52.526;13.326;2023-01-27T10:25:22;102028.38;;;4.29;98.66
15750;BME280;7976;52.526;13.326;2023-01-27T10:27:56;102024.06;;;4.28;98.55
15750;BME280;7976;52.526;13.326;2023-01-27T10:30:32;102029.25;;;4.29;98.62
15750;BME280;7976;52.526;13.326;2023-01-27T10:33:11;102027.53;;;4.28;98.74
15750;BME280;7976;52.526;13.326;2023-01-27T10:35:50;102028.38;;;4.29;98.44
15750;BME280;7976;52.526;13.326;2023-01-27T10:38:34;102029.25;;;4.32;98.68
15750;BME280;7976;52.526;13.326;2023-01-27T10:41:18;102036.19;;;4.33;98.53
15750;BME280;7976;52.526;13.326;2023-01-27T10:44:12;102031.91;;;4.35;98.75
15750;BME280;7976;52.526;13.326;2023-01-27T10:46:52;102031.03;;;4.36;98.45
15750;BME280;7976;52.526;13.326;2023-01-27T10:49:29;102028.47;;;4.38;98.51
15750;BME280;7976;52.526;13.326;2023-01-27T10:52:06;102017.22;;;4.39;98.55
15750;BME280;7976;52.526;13.326;2023-01-27T10:54:40;102025.03;;;4.40;98.32
15750;BME280;7976;52.526;13.326;2023-01-27T10:57:13;102021.59;;;4.40;98.29
15750;BME280;7976;52.526;13.326;2023-01-27T10:59:49;102022.47;;;4.43;98.16
15750;BME280;7976;52.526;13.326;2023-01-27T11:02:28;102025.97;;;4.47;98.47
15750;BME280;7976;52.526;13.326;2023-01-27T11:05:02;102026.81;;;4.47;98.23
15750;BME280;7976;52.526;13.326;2023-01-27T11:07:32;102034.59;;;4.47;98.52
15750;BME280;7976;52.526;13.326;2023-01-27T11:10:14;102034.59;;;4.47;98.31
15750;BME280;7976;52.526;13.326;2023-01-27T11:12:46;102039.75;;;4.46;98.09
15750;BME280;7976;52.526;13.326;2023-01-27T11:15:22;102032.00;;;4.47;98.43
15750;BME280;7976;52.526;13.326;2023-01-27T11:17:58;102025.97;;;4.48;98.46
15750;BME280;7976;52.526;13.326;2023-01-27T11:20:32;102029.47;;;4.55;98.37
15750;BME280;7976;52.526;13.326;2023-01-27T11:23:13;102032.09;;;4.56;98.36
15750;BME280;7976;52.526;13.326;2023-01-27T11:25:49;102026.88;;;4.53;98.16
15750;BME280;7976;52.526;13.326;2023-01-27T11:28:30;102024.28;;;4.53;98.16
15750;BME280;7976;52.526;13.326;2023-01-27T11:31:12;102025.13;;;4.54;98.51
15750;BME280;7976;52.526;13.326;2023-01-27T11:33:53;102021.72;;;4.56;98.16
15750;BME280;7976;52.526;13.326;2023-01-27T11:36:24;102023.50;;;4.60;98.23
15750;BME280;7976;52.526;13.326;2023-01-27T11:38:52;102017.44;;;4.61;98.22
15750;BME280;7976;52.526;13.326;2023-01-27T11:41:20;102020.03;;;4.63;97.87
15750;BME280;7976;52.526;13.326;2023-01-27T11:43:48;102020.03;;;4.63;97.73
15750;BME280;7976;52.526;13.326;2023-01-27T11:46:21;102014.81;;;4.58;97.42
15750;BME280;7976;52.526;13.326;2023-01-27T11:48:53;102020.00;;;4.55;97.50
15750;BME280;7976;52.526;13.326;2023-01-27T11:51:24;102020.00;;;4.55;97.32
15750;BME280;7976;52.526;13.326;2023-01-27T11:54:09;102015.66;;;4.54;97.26
15750;BME280;7976;52.526;13.326;2023-01-27T11:56:43;102019.94;;;4.52;97.21
15750;BME280;7976;52.526;13.326;2023-01-27T11:59:17;102013.03;;;4.48;96.97
15750;BME280;7976;52.526;13.326;2023-01-27T12:01:50;102019.91;;;4.46;97.36
15750;BME280;7976;52.526;13.326;2023-01-27T12:04:28;102015.59;;;4.47;97.25
15750;BME280;7976;52.526;13.326;2023-01-27T12:07:07;102024.28;;;4.50;97.24
15750;BME280;7976;52.526;13.326;2023-01-27T12:09:40;102020.81;;;4.51;96.96
15750;BME280;7976;52.526;13.326;2023-01-27T12:12:17;102025.13;;;4.52;96.80
15750;BME280;7976;52.526;13.326;2023-01-27T12:14:48;102031.19;;;4.54;96.95
15750;BME280;7976;52.526;13.326;2023-01-27T12:17:26;102037.25;;;4.53;96.73
15750;BME280;7976;52.526;13.326;2023-01-27T12:19:57;102026.88;;;4.53;96.88
15750;BME280;7976;52.526;13.326;2023-01-27T12:22:32;102027.72;;;4.54;96.90
15750;BME280;7976;52.526;13.326;2023-01-27T12:25:04;102029.47;;;4.53;97.01
15750;BME280;7976;52.526;13.326;2023-01-27T12:27:40;102023.41;;;4.51;96.69
15750;BME280;7976;52.526;13.326;2023-01-27T12:30:20;102029.44;;;4.50;96.54
15750;BME280;7976;52.526;13.326;2023-01-27T12:32:48;102024.22;;;4.46;96.33
15750;BME280;7976;52.526;13.326;2023-01-27T12:35:21;102019.00;;;4.44;96.25
15750;BME280;7976;52.526;13.326;2023-01-27T12:37:58;102025.97;;;4.47;96.39
15750;BME280;7976;52.526;13.326;2023-01-27T12:40:28;102018.19;;;4.45;95.99
15750;BME280;7976;52.526;13.326;2023-01-27T12:43:12;102024.22;;;4.46;95.97
15750;BME280;7976;52.526;13.326;2023-01-27T12:45:42;102022.50;;;4.48;95.80
15750;BME280;7976;52.526;13.326;2023-01-27T12:48:19;102030.28;;;4.49;95.63
15750;BME280;7976;52.526;13.326;2023-01-27T12:50:55;102021.63;;;4.47;95.76
15750;BME280;7976;52.526;13.326;2023-01-27T12:53:30;102012.94;;;4.42;95.62
15750;BME280;7976;52.526;13.326;2023-01-27T12:56:00;102025.06;;;4.42;95.50
15750;BME280;7976;52.526;13.326;2023-01-27T12:58:34;102024.19;;;4.41;95.06
15750;BME280;7976;52.526;13.326;2023-01-27T13:01:05;102029.38;;;4.41;95.13
15750;BME280;7976;52.526;13.326;2023-01-27T13:03:39;102027.66;;;4.42;94.79
15750;BME280;7976;52.526;13.326;2023-01-27T13:06:08;102029.34;;;4.40;94.36
15750;BME280;7976;52.526;13.326;2023-01-27T13:08:41;102031.06;;;4.39;94.10
15750;BME280;7976;52.526;13.326;2023-01-27T13:11:10;102035.41;;;4.40;94.25
15750;BME280;7976;52.526;13.326;2023-01-27T13:13:48;102032.81;;;4.40;93.68
15750;BME280;7976;52.526;13.326;2023-01-27T13:16:22;102035.41;;;4.40;93.93
15750;BME280;7976;52.526;13.326;2023-01-27T13:18:53;102042.28;;;4.38;93.90
15750;BME280;7976;52.526;13.326;2023-01-27T13:21:27;102034.50;;;4.37;93.42
15750;BME280;7976;52.526;13.326;2023-01-27T13:24:01;102033.63;;;4.33;93.71